Time,TemperatureF,DewpointF,PressureIn,WindDirection,WindDirectionDegrees,WindSpeedMPH,WindSpeedGustMPH,Humidity,HourlyPrecipIn,Conditions,Clouds,dailyrainin,SoftwareType,DateUTC
2013-06-27 00:00:00,69.3,65.2,29.96,NNE,24,0.0,0.0,87,0.00,CLR,,0.00,WeatherDisplay:10.37,2013-06-27 04:00:00,
2013-06-27 00:01:00,69.3,65.2,29.96,NNE,24,0.0,0.0,87,0.00,CLR,,0.00,WeatherDisplay:10.37,2013-06-27 04:01:00,
2013-06-27 00:06:00,69.1,65.0,29.96,NNE,24,0.0,0.0,87,0.00,CLR,,0.00,WeatherDisplay:10.37,2013-06-27 04:06:00,
2013-06-27 00:11:00,68.9,64.9,29.96,NNE,24,0.0,0.0,87,0.00,CLR,,0.00,WeatherDisplay:10.37,2013-06-27 04:11:00,
2013-06-27 00:16:00,68.7,64.7,29.96,NNE,24,0.0,0.0,87,0.00,CLR,,0.00,WeatherDisplay:10.37,2013-06-27 04:16:00,
2013-06-27 00:21:00,68.9,64.9,29.96,NNE,24,0.0,0.0,87,0.00,CLR,,0.00,WeatherDisplay:10.37,2013-06-27 04:21:00,
2013-06-27 00:26:00,69.1,65.0,29.95,NNE,24,0.0,0.0,87,0.00,CLR,,0.00,WeatherDisplay:10.37,2013-06-27 04:26:00,
2013-06-27 00:31:00,69.3,64.9,29.95,NNE,24,0.0,0.0,86,0.00,CLR,,0.00,WeatherDisplay:10.37,2013-06-27 04:31:00,
2013-06-27 00:36:00,69.4,65.1,29.95,NNE,24,0.0,0.0,86,0.00,CLR,,0.00,WeatherDisplay:10.37,2013-06-27 04:36:00,
2013-06-27 00:41:00,69.4,65.1,29.95,NNE,24,0.0,0.0,86,0.00,CLR,,0.00,WeatherDisplay:10.37,2013-06-27 04:41:00,
2013-06-27 00:46:00,69.6,65.2,29.95,NNE,24,0.0,0.0,86,0.00,CLR,,0.00,WeatherDisplay:10.37,2013-06-27 04:46:00,
2013-06-27 00:51:00,69.6,64.9,29.95,NNE,24,0.0,0.0,85,0.00,CLR,,0.00,WeatherDisplay:10.37,2013-06-27 04:51:00,
2013-06-27 00:56:00,69.6,64.9,29.94,NNE,24,0.0,0.0,85,0.00,CLR,,0.00,WeatherDisplay:10.37,2013-06-27 04:56:00,
2013-06-27 01:01:00,69.6,64.9,29.94,NNE,24,0.0,0.0,85,0.00,CLR,,0.00,WeatherDisplay:10.37,2013-06-27 05:01:00,
2013-06-27 01:06:00,69.6,64.9,29.94,NNE,24,0.0,0.0,85,0.00,CLR,,0.00,WeatherDisplay:10.37,2013-06-27 05:06:00,
2013-06-27 01:11:00,69.6,64.6,29.94,NNE,24,0.0,0.0,84,0.00,CLR,,0.00,WeatherDisplay:10.37,2013-06-27 05:11:00,
2013-06-27 01:16:00,69.8,64.7,29.93,NNE,24,0.0,0.0,84,0.00,CLR,,0.00,WeatherDisplay:10.37,2013-06-27 05:16:00,
2013-06-27 01:21:00,69.8,64.7,29.93,NNE,24,0.0,0.0,84,0.00,CLR,,0.00,WeatherDisplay:10.37,2013-06-27 05:21:00,
2013-06-27 01:27:00,70.0,64.9,29.93,NNE,24,0.0,0.0,84,0.00,CLR,,0.00,WeatherDisplay:10.37,2013-06-27 05:27:00,
2013-06-27 01:32:00,70.0,64.9,29.93,NNE,24,0.0,0.0,84,0.00,CLR,,0.00,WeatherDisplay:10.37,2013-06-27 05:32:00,
2013-06-27 01:37:00,70.0,64.9,29.93,NNE,24,0.0,0.0,84,0.00,CLR,,0.00,WeatherDisplay:10.37,2013-06-27 05:37:00,
2013-06-27 01:42:00,70.0,64.9,29.93,NNE,24,0.0,0.0,84,0.00,CLR,,0.00,WeatherDisplay:10.37,2013-06-27 05:42:00,
2013-06-27 01:47:00,70.0,64.9,29.93,NNE,24,0.0,0.0,84,0.00,CLR,,0.00,WeatherDisplay:10.37,2013-06-27 05:47:00,
2013-06-27 01:52:00,70.0,64.9,29.93,NNE,24,0.0,0.0,84,0.00,CLR,,0.00,WeatherDisplay:10.37,2013-06-27 05:52:00,
2013-06-27 01:57:00,70.0,64.6,29.92,NNE,24,0.0,0.0,83,0.00,CLR,,0.00,WeatherDisplay:10.37,2013-06-27 05:57:00,
2013-06-27 02:02:00,70.0,64.6,29.92,NNE,24,0.0,0.0,83,0.00,CLR,,0.00,WeatherDisplay:10.37,2013-06-27 06:02:00,
2013-06-27 02:07:00,70.2,64.8,29.92,NNE,24,0.0,0.0,83,0.00,CLR,,0.00,WeatherDisplay:10.37,2013-06-27 06:07:00,
2013-06-27 02:12:00,70.0,64.6,29.92,NNE,24,0.0,0.0,83,0.00,CLR,,0.00,WeatherDisplay:10.37,2013-06-27 06:12:00,
2013-06-27 02:17:00,70.0,64.6,29.91,NNE,24,0.0,0.0,83,0.00,CLR,,0.00,WeatherDisplay:10.37,2013-06-27 06:17:00,
2013-06-27 02:22:00,70.0,64.6,29.91,NNE,24,0.0,0.0,83,0.00,CLR,,0.00,WeatherDisplay:10.37,2013-06-27 06:22:00,
2013-06-27 02:27:00,70.0,64.6,29.90,NNE,24,0.0,0.0,83,0.00,CLR,,0.00,WeatherDisplay:10.37,2013-06-27 06:27:00,
2013-06-27 02:32:00,70.0,64.6,29.90,NNE,24,0.0,0.0,83,0.00,CLR,,0.00,WeatherDisplay:10.37,2013-06-27 06:32:00,
2013-06-27 02:37:00,70.0,64.6,29.90,NNE,24,0.0,0.0,83,0.00,CLR,,0.00,WeatherDisplay:10.37,2013-06-27 06:37:00,
2013-06-27 02:42:00,70.0,64.6,29.89,NNE,24,0.0,0.0,83,0.00,CLR,,0.00,WeatherDisplay:10.37,2013-06-27 06:42:00,
2013-06-27 02:47:00,70.0,64.6,29.89,NNE,24,0.0,0.0,83,0.00,CLR,,0.00,WeatherDisplay:10.37,2013-06-27 06:47:00,
2013-06-27 02:52:00,70.0,64.6,29.89,NNE,24,0.0,0.0,83,0.00,CLR,,0.00,WeatherDisplay:10.37,2013-06-27 06:52:00,
2013-06-27 02:57:00,70.0,64.6,29.89,NNE,24,0.0,0.0,83,0.00,CLR,,0.00,WeatherDisplay:10.37,2013-06-27 06:57:00,
2013-06-27 03:02:00,70.0,64.6,29.88,NNE,24,0.0,0.0,83,0.00,CLR,,0.00,WeatherDisplay:10.37,2013-06-27 07:02:00,
2013-06-27 03:07:00,70.0,64.6,29.88,NNE,24,0.0,0.0,83,0.00,CLR,,0.00,WeatherDisplay:10.37,2013-06-27 07:07:00,
2013-06-27 03:12:00,70.2,64.8,29.88,NNE,24,0.0,0.0,83,0.00,CLR,,0.00,WeatherDisplay:10.37,2013-06-27 07:12:00,
2013-06-27 03:17:00,70.0,64.6,29.87,NNE,24,0.0,0.0,83,0.00,CLR,,0.00,WeatherDisplay:10.37,2013-06-27 07:17:00,
2013-06-27 03:22:00,70.0,64.6,29.87,NNE,24,0.0,0.0,83,0.00,CLR,,0.00,WeatherDisplay:10.37,2013-06-27 07:22:00,
2013-06-27 03:27:00,70.0,64.6,29.87,NNE,24,0.0,0.0,83,0.00,CLR,,0.00,WeatherDisplay:10.37,2013-06-27 07:27:00,
2013-06-27 03:32:00,69.8,64.4,29.87,NNE,24,0.0,0.0,83,0.00,CLR,,0.00,WeatherDisplay:10.37,2013-06-27 07:32:00,
2013-06-27 03:37:00,69.8,64.4,29.86,NNE,24,0.0,0.0,83,0.00,CLR,,0.00,WeatherDisplay:10.37,2013-06-27 07:37:00,
2013-06-27 03:42:00,69.6,64.2,29.86,NNE,24,0.0,0.0,83,0.00,CLR,,0.00,WeatherDisplay:10.37,2013-06-27 07:42:00,
2013-06-27 03:47:00,69.8,64.4,29.86,NNE,24,0.0,0.0,83,0.00,CLR,,0.00,WeatherDisplay:10.37,2013-06-27 07:47:00,
2013-06-27 03:52:00,70.0,64.6,29.85,NNE,24,0.0,0.0,83,0.00,CLR,,0.00,WeatherDisplay:10.37,2013-06-27 07:52:00,
2013-06-27 03:57:00,70.0,64.2,29.85,NNE,24,0.0,0.0,82,0.00,CLR,,0.00,WeatherDisplay:10.37,2013-06-27 07:57:00,
2013-06-27 04:02:00,70.0,64.2,29.84,NNE,24,0.0,0.0,82,0.00,CLR,,0.00,WeatherDisplay:10.37,2013-06-27 08:02:00,
2013-06-27 04:07:00,70.3,64.6,29.84,NNE,24,0.0,0.0,82,0.00,CLR,,0.00,WeatherDisplay:10.37,2013-06-27 08:07:00,
2013-06-27 04:12:00,70.3,64.2,29.84,NNE,24,0.0,0.0,81,0.00,CLR,,0.00,WeatherDisplay:10.37,2013-06-27 08:12:00,
2013-06-27 04:17:00,70.3,63.9,29.83,NNE,24,0.0,0.0,80,0.00,CLR,,0.00,WeatherDisplay:10.37,2013-06-27 08:17:00,
2013-06-27 04:22:00,70.7,63.9,29.83,NNE,24,0.0,0.0,79,0.00,CLR,,0.00,WeatherDisplay:10.37,2013-06-27 08:22:00,
2013-06-27 04:27:00,70.7,63.9,29.82,NNE,24,0.0,0.0,79,0.00,CLR,,0.00,WeatherDisplay:10.37,2013-06-27 08:27:00,
2013-06-27 04:32:00,70.9,63.7,29.82,NNE,24,0.0,0.0,78,0.00,CLR,,0.00,WeatherDisplay:10.37,2013-06-27 08:32:00,
2013-06-27 04:37:00,71.1,63.9,29.81,NNE,24,0.0,0.0,78,0.00,CLR,,0.00,WeatherDisplay:10.37,2013-06-27 08:37:00,
2013-06-27 04:42:00,71.2,64.0,29.82,NNE,24,0.0,0.0,78,0.00,CLR,,0.00,WeatherDisplay:10.37,2013-06-27 08:42:00,
2013-06-27 04:47:00,71.2,64.0,29.82,NNE,24,0.0,0.0,78,0.00,CLR,,0.00,WeatherDisplay:10.37,2013-06-27 08:47:00,
2013-06-27 04:52:00,71.2,64.0,29.82,NNE,24,0.0,0.0,78,0.00,CLR,,0.00,WeatherDisplay:10.37,2013-06-27 08:52:00,
2013-06-27 04:57:00,71.2,64.0,29.82,NNE,24,0.0,0.0,78,0.00,CLR,,0.00,WeatherDisplay:10.37,2013-06-27 08:57:00,
2013-06-27 05:02:00,71.2,64.0,29.83,NNE,24,0.0,0.0,78,0.00,CLR,,0.00,WeatherDisplay:10.37,2013-06-27 09:02:00,
2013-06-27 05:07:00,71.2,64.0,29.83,NNE,24,0.0,0.0,78,0.00,CLR,,0.00,WeatherDisplay:10.37,2013-06-27 09:07:00,
2013-06-27 05:12:00,71.2,64.0,29.84,NNE,24,0.0,0.0,78,0.00,CLR,,0.00,WeatherDisplay:10.37,2013-06-27 09:12:00,
2013-06-27 05:17:00,71.4,64.2,29.83,NNE,24,0.0,0.0,78,0.00,CLR,,0.00,WeatherDisplay:10.37,2013-06-27 09:17:00,
2013-06-27 05:22:00,71.2,64.0,29.84,NNE,24,0.0,0.0,78,0.00,CLR,,0.00,WeatherDisplay:10.37,2013-06-27 09:22:00,
2013-06-27 05:27:00,71.2,64.4,29.84,NNE,24,0.0,0.0,79,0.00,CLR,,0.00,WeatherDisplay:10.37,2013-06-27 09:27:00,
2013-06-27 05:32:00,71.2,64.4,29.84,NNE,24,0.0,0.0,79,0.00,CLR,,0.00,WeatherDisplay:10.37,2013-06-27 09:32:00,
2013-06-27 05:37:00,70.9,64.0,29.84,NNE,24,0.0,0.0,79,0.00,CLR,,0.00,WeatherDisplay:10.37,2013-06-27 09:37:00,
2013-06-27 05:42:00,70.9,64.4,29.84,NNE,24,0.0,0.0,80,0.00,CLR,,0.00,WeatherDisplay:10.37,2013-06-27 09:42:00,
2013-06-27 05:47:00,70.7,64.2,29.84,NNE,24,0.0,0.0,80,0.00,CLR,,0.00,WeatherDisplay:10.37,2013-06-27 09:47:00,
2013-06-27 05:52:00,70.3,63.9,29.84,NNE,24,0.0,0.0,80,0.00,CLR,,0.00,WeatherDisplay:10.37,2013-06-27 09:52:00,
2013-06-27 05:57:00,70.3,64.2,29.84,NNE,24,0.0,0.0,81,0.00,CLR,,0.00,WeatherDisplay:10.37,2013-06-27 09:57:00,
2013-06-27 06:02:00,70.2,64.1,29.84,NNE,24,0.0,0.0,81,0.00,CLR,,0.00,WeatherDisplay:10.37,2013-06-27 10:02:00,
2013-06-27 06:07:00,70.0,63.9,29.84,NNE,24,0.0,0.0,81,0.00,CLR,,0.00,WeatherDisplay:10.37,2013-06-27 10:07:00,
2013-06-27 06:12:00,69.6,63.9,29.84,NNE,24,0.0,0.0,82,0.00,CLR,,0.00,WeatherDisplay:10.37,2013-06-27 10:12:00,
2013-06-27 06:17:00,69.6,63.9,29.84,NNE,24,0.0,0.0,82,0.00,CLR,,0.00,WeatherDisplay:10.37,2013-06-27 10:17:00,
2013-06-27 06:22:00,69.4,63.7,29.85,NNE,24,0.0,0.0,82,0.00,CLR,,0.00,WeatherDisplay:10.37,2013-06-27 10:22:00,
2013-06-27 06:27:00,69.1,63.7,29.85,NNE,24,0.0,0.0,83,0.00,CLR,,0.00,WeatherDisplay:10.37,2013-06-27 10:27:00,
2013-06-27 06:32:00,68.9,63.5,29.85,NNE,24,0.0,0.0,83,0.00,CLR,,0.00,WeatherDisplay:10.37,2013-06-27 10:32:00,
2013-06-27 06:37:00,68.7,63.7,29.85,NNE,24,0.0,0.0,84,0.00,CLR,,0.00,WeatherDisplay:10.37,2013-06-27 10:37:00,
2013-06-27 06:42:00,68.4,63.3,29.85,NNE,24,0.0,0.0,84,0.00,CLR,,0.00,WeatherDisplay:10.37,2013-06-27 10:42:00,
2013-06-27 06:47:00,67.8,63.1,29.86,NNE,24,0.0,0.0,85,0.00,CLR,,0.00,WeatherDisplay:10.37,2013-06-27 10:47:00,
2013-06-27 06:52:00,67.6,63.0,29.87,NNE,24,0.0,0.0,85,0.00,CLR,,0.00,WeatherDisplay:10.37,2013-06-27 10:52:00,
2013-06-27 06:58:00,67.1,62.8,29.88,NNE,24,0.0,0.0,86,0.00,CLR,,0.00,WeatherDisplay:10.37,2013-06-27 10:58:00,
2013-06-27 07:03:00,66.2,61.9,29.88,NNE,24,0.0,0.0,86,0.00,CLR,,0.00,WeatherDisplay:10.37,2013-06-27 11:03:00,
2013-06-27 07:08:00,65.8,61.9,29.88,NNE,24,0.0,0.0,87,0.00,CLR,,0.00,WeatherDisplay:10.37,2013-06-27 11:08:00,
2013-06-27 07:13:00,65.5,61.5,29.88,NNE,24,0.0,0.0,87,0.00,CLR,,0.00,WeatherDisplay:10.37,2013-06-27 11:13:00,
2013-06-27 07:18:00,65.3,61.3,29.88,NNE,24,0.0,0.0,87,0.00,CLR,,0.00,WeatherDisplay:10.37,2013-06-27 11:18:00,
2013-06-27 07:23:00,65.1,61.5,29.89,NNE,24,0.0,0.0,88,0.00,CLR,,0.00,WeatherDisplay:10.37,2013-06-27 11:23:00,
2013-06-27 07:28:00,65.1,61.5,29.89,NNE,24,0.0,0.0,88,0.00,CLR,,0.00,WeatherDisplay:10.37,2013-06-27 11:28:00,
2013-06-27 07:33:00,65.1,61.5,29.89,NNE,24,0.0,0.0,88,0.00,CLR,,0.00,WeatherDisplay:10.37,2013-06-27 11:33:00,
2013-06-27 07:38:00,65.1,61.8,29.89,NNE,24,0.0,0.0,89,0.00,CLR,,0.00,WeatherDisplay:10.37,2013-06-27 11:38:00,
2013-06-27 07:43:00,65.1,61.8,29.89,NNE,24,0.0,0.0,89,0.00,CLR,,0.00,WeatherDisplay:10.37,2013-06-27 11:43:00,
2013-06-27 07:48:00,64.9,61.6,29.89,NNE,24,0.0,0.0,89,0.00,CLR,,0.00,WeatherDisplay:10.37,2013-06-27 11:48:00,
2013-06-27 07:53:00,64.9,61.9,29.90,NNE,24,0.0,0.0,90,0.00,CLR,,0.00,WeatherDisplay:10.37,2013-06-27 11:53:00,
2013-06-27 07:58:00,64.8,61.8,29.90,NNE,24,0.0,0.0,90,0.00,CLR,,0.00,WeatherDisplay:10.37,2013-06-27 11:58:00,
2013-06-27 08:03:00,64.6,61.6,29.90,NNE,24,0.0,0.0,90,0.00,CLR,,0.00,WeatherDisplay:10.37,2013-06-27 12:03:00,
2013-06-27 08:08:00,64.6,61.6,29.90,NNE,24,0.0,0.0,90,0.00,CLR,,0.00,WeatherDisplay:10.37,2013-06-27 12:08:00,
2013-06-27 08:13:00,64.6,61.6,29.90,NNE,24,0.0,0.0,90,0.00,CLR,,0.00,WeatherDisplay:10.37,2013-06-27 12:13:00,
2013-06-27 08:18:00,64.2,61.2,29.90,NNE,24,0.0,0.0,90,0.00,CLR,,0.00,WeatherDisplay:10.37,2013-06-27 12:18:00,
2013-06-27 08:23:00,64.2,61.2,29.90,NNE,24,0.0,0.0,90,0.00,CLR,,0.00,WeatherDisplay:10.37,2013-06-27 12:23:00,
2013-06-27 08:28:00,64.4,61.4,29.90,NNE,24,0.0,0.0,90,0.00,CLR,,0.00,WeatherDisplay:10.37,2013-06-27 12:28:00,
2013-06-27 08:33:00,64.2,61.2,29.90,NNE,24,0.0,0.0,90,0.00,CLR,,0.00,WeatherDisplay:10.37,2013-06-27 12:33:00,
2013-06-27 08:38:00,64.2,61.2,29.90,NNE,24,0.0,0.0,90,0.00,CLR,,0.00,WeatherDisplay:10.37,2013-06-27 12:38:00,
2013-06-27 08:43:00,64.4,61.7,29.90,NNE,24,0.0,0.0,91,0.00,CLR,,0.00,WeatherDisplay:10.37,2013-06-27 12:43:00,
2013-06-27 08:48:00,64.6,61.9,29.90,NNE,24,0.0,0.0,91,0.00,CLR,,0.00,WeatherDisplay:10.37,2013-06-27 12:48:00,
2013-06-27 08:53:00,64.6,61.9,29.90,NNE,24,0.0,0.0,91,0.00,CLR,,0.00,WeatherDisplay:10.37,2013-06-27 12:53:00,
2013-06-27 08:58:00,64.6,61.9,29.90,NNE,24,0.0,0.0,91,0.00,CLR,,0.00,WeatherDisplay:10.37,2013-06-27 12:58:00,
2013-06-27 09:03:00,64.6,61.6,29.90,NNE,24,0.0,0.0,90,0.00,CLR,,0.00,WeatherDisplay:10.37,2013-06-27 13:03:00,
2013-06-27 09:08:00,64.6,61.6,29.90,NNE,24,0.0,0.0,90,0.00,CLR,,0.00,WeatherDisplay:10.37,2013-06-27 13:08:00,
2013-06-27 09:13:00,64.2,61.2,29.90,NNE,24,0.0,0.0,90,0.00,CLR,,0.00,WeatherDisplay:10.37,2013-06-27 13:13:00,
2013-06-27 09:18:00,64.2,61.2,29.90,NNE,24,0.0,0.0,90,0.00,CLR,,0.00,WeatherDisplay:10.37,2013-06-27 13:18:00,
2013-06-27 09:23:00,64.2,61.2,29.90,NNE,24,0.0,0.0,90,0.00,CLR,,0.00,WeatherDisplay:10.37,2013-06-27 13:23:00,
2013-06-27 09:28:00,64.0,61.0,29.90,NNE,24,0.0,0.0,90,0.00,CLR,,0.00,WeatherDisplay:10.37,2013-06-27 13:28:00,
2013-06-27 09:33:00,64.0,61.0,29.90,NNE,24,0.0,0.0,90,0.00,CLR,,0.00,WeatherDisplay:10.37,2013-06-27 13:33:00,
2013-06-27 09:38:00,63.7,60.7,29.90,NNE,24,0.0,0.0,90,0.00,CLR,,0.00,WeatherDisplay:10.37,2013-06-27 13:38:00,
2013-06-27 09:43:00,63.5,60.5,29.90,NNE,24,0.0,0.0,90,0.00,CLR,,0.00,WeatherDisplay:10.37,2013-06-27 13:43:00,
2013-06-27 09:48:00,63.5,60.8,29.90,NNE,24,0.0,0.0,91,0.00,CLR,,0.00,WeatherDisplay:10.37,2013-06-27 13:48:00,
2013-06-27 09:53:00,63.5,60.8,29.90,NNE,24,0.0,0.0,91,0.00,CLR,,0.00,WeatherDisplay:10.37,2013-06-27 13:53:00,
2013-06-27 09:58:00,63.5,60.8,29.90,NNE,24,0.0,0.0,91,0.00,CLR,,0.00,WeatherDisplay:10.37,2013-06-27 13:58:00,
2013-06-27 10:03:00,63.7,61.0,29.90,NNE,24,0.0,0.0,91,0.00,CLR,,0.00,WeatherDisplay:10.37,2013-06-27 14:03:00,
2013-06-27 10:08:00,63.5,60.8,29.90,NNE,24,0.0,0.0,91,0.00,CLR,,0.00,WeatherDisplay:10.37,2013-06-27 14:08:00,
2013-06-27 10:13:00,63.3,60.6,29.90,NNE,24,0.0,0.0,91,0.00,CLR,,0.00,WeatherDisplay:10.37,2013-06-27 14:13:00,
2013-06-27 10:18:00,63.1,60.5,29.90,NNE,24,0.0,0.0,91,0.00,CLR,,0.00,WeatherDisplay:10.37,2013-06-27 14:18:00,
2013-06-27 10:23:00,63.1,60.5,29.90,NNE,24,0.0,0.0,91,0.00,CLR,,0.00,WeatherDisplay:10.37,2013-06-27 14:23:00,
2013-06-27 10:28:00,63.3,61.0,29.90,NNE,24,0.0,0.0,92,0.00,CLR,,0.00,WeatherDisplay:10.37,2013-06-27 14:28:00,
2013-06-27 10:33:00,63.3,61.0,29.89,NNE,24,0.0,0.0,92,0.00,CLR,,0.00,WeatherDisplay:10.37,2013-06-27 14:33:00,
2013-06-27 10:38:00,63.5,61.1,29.89,NNE,24,0.0,0.0,92,0.00,CLR,,0.00,WeatherDisplay:10.37,2013-06-27 14:38:00,
2013-06-27 10:43:00,63.7,61.3,29.89,NNE,24,0.0,0.0,92,0.00,CLR,,0.00,WeatherDisplay:10.37,2013-06-27 14:43:00,
2013-06-27 10:48:00,64.0,61.7,29.89,NNE,24,0.0,0.0,92,0.00,CLR,,0.00,WeatherDisplay:10.37,2013-06-27 14:48:00,
2013-06-27 10:53:00,63.7,61.3,29.90,NNE,24,0.0,0.0,92,0.00,CLR,,0.00,WeatherDisplay:10.37,2013-06-27 14:53:00,
2013-06-27 10:58:00,63.7,61.3,29.90,NNE,24,0.0,0.0,92,0.00,CLR,,0.00,WeatherDisplay:10.37,2013-06-27 14:58:00,
2013-06-27 11:03:00,63.7,61.3,29.90,NNE,24,0.0,0.0,92,0.00,CLR,,0.00,WeatherDisplay:10.37,2013-06-27 15:03:00,
2013-06-27 11:08:00,63.5,61.1,29.89,NNE,24,0.0,0.0,92,0.00,CLR,,0.00,WeatherDisplay:10.37,2013-06-27 15:08:00,
2013-06-27 11:13:00,63.3,61.0,29.90,NNE,24,0.0,0.0,92,0.00,CLR,,0.00,WeatherDisplay:10.37,2013-06-27 15:13:00,
2013-06-27 11:18:00,63.3,61.0,29.90,NNE,24,0.0,0.0,92,0.00,CLR,,0.00,WeatherDisplay:10.37,2013-06-27 15:18:00,
2013-06-27 11:23:00,63.3,61.0,29.90,NNE,24,0.0,0.0,92,0.00,CLR,,0.00,WeatherDisplay:10.37,2013-06-27 15:23:00,
2013-06-27 11:28:00,63.3,61.0,29.90,NNE,24,0.0,0.0,92,0.00,CLR,,0.00,WeatherDisplay:10.37,2013-06-27 15:28:00,
2013-06-27 11:33:00,63.3,61.0,29.90,NNE,24,0.0,0.0,92,0.00,CLR,,0.00,WeatherDisplay:10.37,2013-06-27 15:33:00,
2013-06-27 11:38:00,63.5,61.1,29.90,NNE,24,0.0,0.0,92,0.00,CLR,,0.00,WeatherDisplay:10.37,2013-06-27 15:38:00,
2013-06-27 11:43:00,63.7,61.3,29.89,NNE,24,0.0,0.0,92,0.00,CLR,,0.00,WeatherDisplay:10.37,2013-06-27 15:43:00,
2013-06-27 11:48:00,63.7,61.3,29.89,NNE,24,0.0,0.0,92,0.00,CLR,,0.00,WeatherDisplay:10.37,2013-06-27 15:48:00,
2013-06-27 11:53:00,64.0,61.7,29.89,NNE,24,0.0,0.0,92,0.00,CLR,,0.00,WeatherDisplay:10.37,2013-06-27 15:53:00,
2013-06-27 11:58:00,64.0,61.7,29.90,NNE,24,0.0,0.0,92,0.00,CLR,,0.00,WeatherDisplay:10.37,2013-06-27 15:58:00,
2013-06-27 12:03:00,64.2,61.8,29.90,NNE,24,0.0,0.0,92,0.00,CLR,,0.00,WeatherDisplay:10.37,2013-06-27 16:03:00,
2013-06-27 12:08:00,64.2,61.8,29.89,NNE,24,0.0,0.0,92,0.00,CLR,,0.00,WeatherDisplay:10.37,2013-06-27 16:08:00,
2013-06-27 12:13:00,64.2,61.8,29.89,NNE,24,0.0,0.0,92,0.00,CLR,,0.00,WeatherDisplay:10.37,2013-06-27 16:13:00,
2013-06-27 12:18:00,64.4,62.0,29.89,NNE,24,0.0,0.0,92,0.00,CLR,,0.00,WeatherDisplay:10.37,2013-06-27 16:18:00,
2013-06-27 12:23:00,64.6,62.2,29.89,NNE,24,0.0,0.0,92,0.00,CLR,,0.00,WeatherDisplay:10.37,2013-06-27 16:23:00,
2013-06-27 12:28:00,64.8,62.7,29.89,NNE,24,0.0,0.0,93,0.00,CLR,,0.00,WeatherDisplay:10.37,2013-06-27 16:28:00,
2013-06-27 12:33:00,64.9,62.9,29.89,NNE,24,0.0,0.0,93,0.00,CLR,,0.00,WeatherDisplay:10.37,2013-06-27 16:33:00,
2013-06-27 12:38:00,65.1,63.0,29.88,NNE,24,0.0,0.0,93,0.00,CLR,,0.00,WeatherDisplay:10.37,2013-06-27 16:38:00,
2013-06-27 12:43:00,65.5,63.4,29.88,NNE,24,0.0,0.0,93,0.00,CLR,,0.00,WeatherDisplay:10.37,2013-06-27 16:43:00,
2013-06-27 12:48:00,65.7,63.6,29.89,NNE,24,0.0,0.0,93,0.00,CLR,,0.00,WeatherDisplay:10.37,2013-06-27 16:48:00,
2013-06-27 12:53:00,65.8,63.8,29.89,NNE,24,0.0,0.0,93,0.00,CLR,,0.00,WeatherDisplay:10.37,2013-06-27 16:53:00,
2013-06-27 12:58:00,65.8,63.8,29.88,NNE,24,0.0,0.0,93,0.00,CLR,,0.00,WeatherDisplay:10.37,2013-06-27 16:58:00,
2013-06-27 13:03:00,66.0,63.6,29.88,NNE,24,0.0,0.0,92,0.00,CLR,,0.00,WeatherDisplay:10.37,2013-06-27 17:03:00,
2013-06-27 13:08:00,65.8,63.5,29.88,NNE,24,0.0,0.0,92,0.00,CLR,,0.00,WeatherDisplay:10.37,2013-06-27 17:08:00,
2013-06-27 13:13:00,65.8,63.5,29.88,NNE,24,0.0,0.0,92,0.00,CLR,,0.00,WeatherDisplay:10.37,2013-06-27 17:13:00,
2013-06-27 13:18:00,66.0,63.6,29.88,NNE,24,0.0,0.0,92,0.00,CLR,,0.00,WeatherDisplay:10.37,2013-06-27 17:18:00,
2013-06-27 13:24:00,66.0,63.6,29.88,NNE,24,0.0,0.0,92,0.00,CLR,,0.00,WeatherDisplay:10.37,2013-06-27 17:24:00,
2013-06-27 13:29:00,66.0,63.6,29.88,NNE,24,0.0,0.0,92,0.00,CLR,,0.00,WeatherDisplay:10.37,2013-06-27 17:29:00,
2013-06-27 13:34:00,66.6,64.2,29.88,NNE,24,0.0,0.0,92,0.00,CLR,,0.00,WeatherDisplay:10.37,2013-06-27 17:34:00,
2013-06-27 13:39:00,66.6,64.2,29.88,NNE,24,0.0,0.0,92,0.00,CLR,,0.00,WeatherDisplay:10.37,2013-06-27 17:39:00,
2013-06-27 13:44:00,66.7,64.0,29.88,NNE,24,0.0,0.0,91,0.00,CLR,,0.00,WeatherDisplay:10.37,2013-06-27 17:44:00,
2013-06-27 13:49:00,66.7,64.0,29.88,NNE,24,0.0,0.0,91,0.00,CLR,,0.00,WeatherDisplay:10.37,2013-06-27 17:49:00,
2013-06-27 13:54:00,66.9,64.2,29.88,NNE,24,0.0,0.0,91,0.00,CLR,,0.00,WeatherDisplay:10.37,2013-06-27 17:54:00,
2013-06-27 13:59:00,66.9,64.2,29.88,NNE,24,0.0,0.0,91,0.00,CLR,,0.00,WeatherDisplay:10.37,2013-06-27 17:59:00,
2013-06-27 14:04:00,67.1,64.4,29.88,NNE,24,0.0,0.0,91,0.00,CLR,,0.00,WeatherDisplay:10.37,2013-06-27 18:04:00,
2013-06-27 14:09:00,67.3,64.6,29.88,NNE,24,0.0,0.0,91,0.00,CLR,,0.00,WeatherDisplay:10.37,2013-06-27 18:09:00,
2013-06-27 14:14:00,67.6,64.9,29.88,NNE,24,0.0,0.0,91,0.00,CLR,,0.00,WeatherDisplay:10.37,2013-06-27 18:14:00,
2013-06-27 14:19:00,67.8,65.1,29.88,NNE,24,0.0,0.0,91,0.00,CLR,,0.00,WeatherDisplay:10.37,2013-06-27 18:19:00,
2013-06-27 14:24:00,67.8,65.1,29.88,NNE,24,0.0,0.0,91,0.00,CLR,,0.00,WeatherDisplay:10.37,2013-06-27 18:24:00,
2013-06-27 14:29:00,67.8,65.1,29.88,NNE,24,0.0,0.0,91,0.00,CLR,,0.00,WeatherDisplay:10.37,2013-06-27 18:29:00,
2013-06-27 14:34:00,67.8,65.1,29.88,NNE,24,0.0,0.0,91,0.00,CLR,,0.00,WeatherDisplay:10.37,2013-06-27 18:34:00,
2013-06-27 14:39:00,68.5,65.8,29.88,NNE,24,0.0,0.0,91,0.00,CLR,,0.00,WeatherDisplay:10.37,2013-06-27 18:39:00,
2013-06-27 14:44:00,68.5,65.5,29.88,NNE,24,0.0,0.0,90,0.00,CLR,,0.00,WeatherDisplay:10.37,2013-06-27 18:44:00,
2013-06-27 14:49:00,68.7,65.7,29.88,NNE,24,0.0,0.0,90,0.00,CLR,,0.00,WeatherDisplay:10.37,2013-06-27 18:49:00,
2013-06-27 14:54:00,68.5,65.5,29.88,NNE,24,0.0,0.0,90,0.00,CLR,,0.00,WeatherDisplay:10.37,2013-06-27 18:54:00,
2013-06-27 14:59:00,68.5,65.5,29.88,NNE,24,0.0,0.0,90,0.00,CLR,,0.00,WeatherDisplay:10.37,2013-06-27 18:59:00,
2013-06-27 15:04:00,68.4,65.3,29.88,NNE,24,0.0,0.0,90,0.00,CLR,,0.00,WeatherDisplay:10.37,2013-06-27 19:04:00,
2013-06-27 15:09:00,68.2,65.1,29.88,NNE,24,0.0,0.0,90,0.00,CLR,,0.00,WeatherDisplay:10.37,2013-06-27 19:09:00,
2013-06-27 15:14:00,68.2,65.1,29.88,NNE,24,0.0,0.0,90,0.00,CLR,,0.00,WeatherDisplay:10.37,2013-06-27 19:14:00,
2013-06-27 15:19:00,68.2,65.1,29.88,NNE,24,0.0,0.0,90,0.00,CLR,,0.00,WeatherDisplay:10.37,2013-06-27 19:19:00,
2013-06-27 15:24:00,68.4,65.3,29.87,NNE,24,0.0,0.0,90,0.00,CLR,,0.00,WeatherDisplay:10.37,2013-06-27 19:24:00,
2013-06-27 15:29:00,68.4,65.3,29.87,NNE,24,0.0,0.0,90,0.00,CLR,,0.00,WeatherDisplay:10.37,2013-06-27 19:29:00,
2013-06-27 15:34:00,68.5,65.8,29.88,NNE,24,0.0,0.0,91,0.00,CLR,,0.00,WeatherDisplay:10.37,2013-06-27 19:34:00,
2013-06-27 15:39:00,68.7,66.0,29.87,NNE,24,0.0,0.0,91,0.00,CLR,,0.00,WeatherDisplay:10.37,2013-06-27 19:39:00,
2013-06-27 15:44:00,69.1,66.0,29.87,NNE,24,0.0,0.0,90,0.00,CLR,,0.00,WeatherDisplay:10.37,2013-06-27 19:44:00,
2013-06-27 15:49:00,69.1,66.0,29.87,NNE,24,0.0,0.0,90,0.00,CLR,,0.00,WeatherDisplay:10.37,2013-06-27 19:49:00,
2013-06-27 15:54:00,68.9,65.5,29.88,NNE,24,0.0,0.0,89,0.00,CLR,,0.00,WeatherDisplay:10.37,2013-06-27 19:54:00,
2013-06-27 15:59:00,69.1,66.0,29.87,NNE,24,0.0,0.0,90,0.00,CLR,,0.00,WeatherDisplay:10.37,2013-06-27 19:59:00,
2013-06-27 16:04:00,69.3,66.2,29.87,NNE,24,0.0,0.0,90,0.00,CLR,,0.00,WeatherDisplay:10.37,2013-06-27 20:04:00,
2013-06-27 16:09:00,69.4,66.4,29.87,NNE,24,0.0,0.0,90,0.00,CLR,,0.00,WeatherDisplay:10.37,2013-06-27 20:09:00,
2013-06-27 16:14:00,70.2,66.8,29.87,NNE,24,0.0,0.0,89,0.00,CLR,,0.00,WeatherDisplay:10.37,2013-06-27 20:14:00,
2013-06-27 16:19:00,70.2,66.4,29.87,NNE,24,0.0,0.0,88,0.00,CLR,,0.00,WeatherDisplay:10.37,2013-06-27 20:19:00,
2013-06-27 16:24:00,70.0,66.3,29.87,NNE,24,0.0,0.0,88,0.00,CLR,,0.00,WeatherDisplay:10.37,2013-06-27 20:24:00,
2013-06-27 16:29:00,69.6,65.9,29.86,NNE,24,0.0,0.0,88,0.00,CLR,,0.00,WeatherDisplay:10.37,2013-06-27 20:29:00,
2013-06-27 16:34:00,69.6,66.2,29.86,NNE,24,0.0,0.0,89,0.00,CLR,,0.00,WeatherDisplay:10.37,2013-06-27 20:34:00,
2013-06-27 16:40:00,69.8,66.4,29.87,NNE,24,0.0,0.0,89,0.00,CLR,,0.00,WeatherDisplay:10.37,2013-06-27 20:40:00,
2013-06-27 16:45:00,70.0,66.3,29.86,NNE,24,0.0,0.0,88,0.00,CLR,,0.00,WeatherDisplay:10.37,2013-06-27 20:45:00,
2013-06-27 16:50:00,70.3,66.6,29.86,NNE,24,0.0,0.0,88,0.00,CLR,,0.00,WeatherDisplay:10.37,2013-06-27 20:50:00,
2013-06-27 16:55:00,70.5,66.8,29.86,NNE,24,0.0,0.0,88,0.00,CLR,,0.00,WeatherDisplay:10.37,2013-06-27 20:55:00,
2013-06-27 17:02:00,70.7,66.6,29.86,NNE,24,0.0,0.0,87,0.00,CLR,,0.00,WeatherDisplay:10.37,2013-06-27 21:02:00,
2013-06-27 17:07:00,70.7,66.6,29.86,NNE,24,0.0,0.0,87,0.00,CLR,,0.00,WeatherDisplay:10.37,2013-06-27 21:07:00,
2013-06-27 17:12:00,70.5,66.5,29.85,NNE,24,0.0,0.0,87,0.00,CLR,,0.00,WeatherDisplay:10.37,2013-06-27 21:12:00,
2013-06-27 17:18:00,70.3,66.0,29.85,NNE,24,0.0,0.0,86,0.00,CLR,,0.00,WeatherDisplay:10.37,2013-06-27 21:18:00,
2013-06-27 17:23:00,70.2,66.1,29.84,NNE,24,0.0,0.0,87,0.00,CLR,,0.00,WeatherDisplay:10.37,2013-06-27 21:23:00,
2013-06-27 17:28:00,70.0,65.9,29.84,NNE,24,0.0,0.0,87,0.00,CLR,,0.00,WeatherDisplay:10.37,2013-06-27 21:28:00,
2013-06-27 17:33:00,70.0,65.9,29.85,NNE,24,0.0,0.0,87,0.00,CLR,,0.00,WeatherDisplay:10.37,2013-06-27 21:33:00,
2013-06-27 17:38:00,69.6,65.9,29.84,NNE,24,0.0,0.0,88,0.00,CLR,,0.00,WeatherDisplay:10.37,2013-06-27 21:38:00,
2013-06-27 17:44:00,69.6,65.9,29.85,NNE,24,0.0,0.0,88,0.00,CLR,,0.00,WeatherDisplay:10.37,2013-06-27 21:44:00,
2013-06-27 17:49:00,69.4,65.7,29.84,NNE,24,0.0,0.0,88,0.00,CLR,,0.00,WeatherDisplay:10.37,2013-06-27 21:49:00,
2013-06-27 17:54:00,69.4,66.1,29.85,NNE,24,0.0,0.0,89,0.00,CLR,,0.00,WeatherDisplay:10.37,2013-06-27 21:54:00,
2013-06-27 18:00:00,69.4,66.1,29.84,NNE,24,0.0,0.0,89,0.00,CLR,,0.00,WeatherDisplay:10.37,2013-06-27 22:00:00,
2013-06-27 18:05:00,69.6,66.2,29.84,NNE,24,0.0,0.0,89,0.00,CLR,,0.00,WeatherDisplay:10.37,2013-06-27 22:05:00,
2013-06-27 18:10:00,69.4,66.1,29.84,NNE,24,0.0,0.0,89,0.00,CLR,,0.00,WeatherDisplay:10.37,2013-06-27 22:10:00,
2013-06-27 18:15:00,69.6,66.2,29.84,NNE,24,0.0,0.0,89,0.00,CLR,,0.00,WeatherDisplay:10.37,2013-06-27 22:15:00,
2013-06-27 18:20:00,70.3,67.3,29.84,NNE,24,0.0,0.0,90,0.00,CLR,,0.00,WeatherDisplay:10.37,2013-06-27 22:20:00,
2013-06-27 18:25:00,70.3,67.3,29.84,NNE,24,0.0,0.0,90,0.00,CLR,,0.00,WeatherDisplay:10.37,2013-06-27 22:25:00,
2013-06-27 18:30:00,70.5,67.1,29.84,NNE,24,0.0,0.0,89,0.00,CLR,,0.00,WeatherDisplay:10.37,2013-06-27 22:30:00,
2013-06-27 18:35:00,70.9,67.8,29.84,NNE,24,0.0,0.0,90,0.00,CLR,,0.00,WeatherDisplay:10.37,2013-06-27 22:35:00,
2013-06-27 18:40:00,70.9,67.5,29.84,NNE,24,0.0,0.0,89,0.00,CLR,,0.00,WeatherDisplay:10.37,2013-06-27 22:40:00,
2013-06-27 18:45:00,70.9,67.5,29.84,NNE,24,0.0,0.0,89,0.00,CLR,,0.00,WeatherDisplay:10.37,2013-06-27 22:45:00,
2013-06-27 18:50:00,71.1,67.7,29.84,NNE,24,0.0,0.0,89,0.00,CLR,,0.00,WeatherDisplay:10.37,2013-06-27 22:50:00,
2013-06-27 18:56:00,70.7,67.0,29.84,NNE,24,0.0,0.0,88,0.00,CLR,,0.00,WeatherDisplay:10.37,2013-06-27 22:56:00,
2013-06-27 19:01:00,70.7,67.3,29.84,NNE,24,0.0,0.0,89,0.00,CLR,,0.00,WeatherDisplay:10.37,2013-06-27 23:01:00,
2013-06-27 19:06:00,70.7,67.3,29.84,NNE,24,0.0,0.0,89,0.00,CLR,,0.00,WeatherDisplay:10.37,2013-06-27 23:06:00,
2013-06-27 19:11:00,70.5,67.1,29.84,NNE,24,0.0,0.0,89,0.00,CLR,,0.00,WeatherDisplay:10.37,2013-06-27 23:11:00,
2013-06-27 19:17:00,70.3,66.9,29.84,NNE,24,0.0,0.0,89,0.00,CLR,,0.00,WeatherDisplay:10.37,2013-06-27 23:17:00,
2013-06-27 19:22:00,70.3,66.9,29.84,NNE,24,0.0,0.0,89,0.00,CLR,,0.00,WeatherDisplay:10.37,2013-06-27 23:22:00,
2013-06-27 19:27:00,70.3,66.9,29.84,NNE,24,0.0,0.0,89,0.00,CLR,,0.00,WeatherDisplay:10.37,2013-06-27 23:27:00,
2013-06-27 19:32:00,70.5,67.1,29.85,NNE,24,0.0,0.0,89,0.00,CLR,,0.00,WeatherDisplay:10.37,2013-06-27 23:32:00,
2013-06-27 19:37:00,70.5,67.4,29.85,NNE,24,0.0,0.0,90,0.00,CLR,,0.00,WeatherDisplay:10.37,2013-06-27 23:37:00,
2013-06-27 19:42:00,70.5,67.1,29.85,NNE,24,0.0,0.0,89,0.00,CLR,,0.00,WeatherDisplay:10.37,2013-06-27 23:42:00,
2013-06-27 19:48:00,70.5,67.1,29.85,NNE,24,0.0,0.0,89,0.00,CLR,,0.00,WeatherDisplay:10.37,2013-06-27 23:48:00,
2013-06-27 19:53:00,70.5,67.1,29.85,NNE,24,0.0,0.0,89,0.00,CLR,,0.00,WeatherDisplay:10.37,2013-06-27 23:53:00,
2013-06-27 19:59:00,70.5,67.4,29.85,NNE,24,0.0,0.0,90,0.00,CLR,,0.00,WeatherDisplay:10.37,2013-06-27 23:59:00,
2013-06-27 20:04:00,70.3,67.3,29.85,NNE,24,0.0,0.0,90,0.00,CLR,,0.00,WeatherDisplay:10.37,2013-06-28 00:04:00,
2013-06-27 20:09:00,70.3,67.3,29.85,NNE,24,0.0,0.0,90,0.00,CLR,,0.00,WeatherDisplay:10.37,2013-06-28 00:09:00,
2013-06-27 20:14:00,70.3,67.3,29.85,NNE,24,0.0,0.0,90,0.00,CLR,,0.00,WeatherDisplay:10.37,2013-06-28 00:14:00,
2013-06-27 20:20:00,70.2,67.1,29.85,NNE,24,0.0,0.0,90,0.00,CLR,,0.00,WeatherDisplay:10.37,2013-06-28 00:20:00,
2013-06-27 20:25:00,70.0,66.9,29.85,NNE,24,0.0,0.0,90,0.00,CLR,,0.00,WeatherDisplay:10.37,2013-06-28 00:25:00,
2013-06-27 20:30:00,69.8,66.4,29.85,NNE,24,0.0,0.0,89,0.00,CLR,,0.00,WeatherDisplay:10.37,2013-06-28 00:30:00,
2013-06-27 20:35:00,69.6,66.2,29.85,NNE,24,0.0,0.0,89,0.00,CLR,,0.00,WeatherDisplay:10.37,2013-06-28 00:35:00,
2013-06-27 20:40:00,69.6,66.6,29.85,NNE,24,0.0,0.0,90,0.00,CLR,,0.00,WeatherDisplay:10.37,2013-06-28 00:40:00,
2013-06-27 20:45:00,69.4,66.4,29.85,NNE,24,0.0,0.0,90,0.00,CLR,,0.00,WeatherDisplay:10.37,2013-06-28 00:45:00,
2013-06-27 20:50:00,69.3,66.3,29.85,NNE,24,0.0,0.0,90,0.00,CLR,,0.00,WeatherDisplay:10.37,2013-06-28 00:50:00,
2013-06-27 20:55:00,69.1,66.0,29.85,NNE,24,0.0,0.0,90,0.00,CLR,,0.00,WeatherDisplay:10.37,2013-06-28 00:55:00,
2013-06-27 21:00:00,69.1,66.0,29.85,NNE,24,0.0,0.0,90,0.00,CLR,,0.00,WeatherDisplay:10.37,2013-06-28 01:00:00,
2013-06-27 21:05:00,69.0,65.9,29.85,NNE,24,0.0,0.0,90,0.00,CLR,,0.00,WeatherDisplay:10.37,2013-06-28 01:05:00,
2013-06-27 21:10:00,68.9,66.2,29.85,NNE,24,0.0,0.0,91,0.00,CLR,,0.00,WeatherDisplay:10.37,2013-06-28 01:10:00,
2013-06-27 21:15:00,68.7,66.0,29.85,NNE,24,0.0,0.0,91,0.00,CLR,,0.00,WeatherDisplay:10.37,2013-06-28 01:15:00,
2013-06-27 21:20:00,68.7,66.0,29.85,NNE,24,0.0,0.0,91,0.00,CLR,,0.00,WeatherDisplay:10.37,2013-06-28 01:20:00,
2013-06-27 21:25:00,68.7,66.0,29.85,NNE,24,0.0,0.0,91,0.00,CLR,,0.00,WeatherDisplay:10.37,2013-06-28 01:25:00,
2013-06-27 21:30:00,68.7,66.0,29.85,NNE,24,0.0,0.0,91,0.00,CLR,,0.00,WeatherDisplay:10.37,2013-06-28 01:30:00,
2013-06-27 21:35:00,68.5,65.8,29.86,NNE,24,0.0,0.0,91,0.00,CLR,,0.00,WeatherDisplay:10.37,2013-06-28 01:35:00,
2013-06-27 21:40:00,68.4,65.6,29.86,NNE,24,0.0,0.0,91,0.00,CLR,,0.00,WeatherDisplay:10.37,2013-06-28 01:40:00,
2013-06-27 21:45:00,68.4,65.9,29.85,NNE,24,0.0,0.0,92,0.00,CLR,,0.00,WeatherDisplay:10.37,2013-06-28 01:45:00,
2013-06-27 21:50:00,68.4,65.9,29.85,NNE,24,0.0,0.0,92,0.00,CLR,,0.00,WeatherDisplay:10.37,2013-06-28 01:50:00,
2013-06-27 21:55:00,68.4,65.9,29.86,NNE,24,0.0,0.0,92,0.00,CLR,,0.00,WeatherDisplay:10.37,2013-06-28 01:55:00,
2013-06-27 22:00:00,68.4,65.9,29.85,NNE,24,0.0,0.0,92,0.00,CLR,,0.00,WeatherDisplay:10.37,2013-06-28 02:00:00,
2013-06-27 22:05:00,68.2,65.8,29.86,NNE,24,0.0,0.0,92,0.00,CLR,,0.00,WeatherDisplay:10.37,2013-06-28 02:05:00,
2013-06-27 22:10:00,68.2,65.8,29.86,NNE,24,0.0,0.0,92,0.00,CLR,,0.00,WeatherDisplay:10.37,2013-06-28 02:10:00,
2013-06-27 22:16:00,68.2,65.8,29.86,NNE,24,0.0,0.0,92,0.00,CLR,,0.00,WeatherDisplay:10.37,2013-06-28 02:16:00,
2013-06-27 22:21:00,68.2,65.8,29.86,NNE,24,0.0,0.0,92,0.00,CLR,,0.00,WeatherDisplay:10.37,2013-06-28 02:21:00,
2013-06-27 22:26:00,68.0,65.6,29.86,NNE,24,0.0,0.0,92,0.00,CLR,,0.00,WeatherDisplay:10.37,2013-06-28 02:26:00,
2013-06-27 22:32:00,67.8,65.4,29.86,NNE,24,0.0,0.0,92,0.00,CLR,,0.00,WeatherDisplay:10.37,2013-06-28 02:32:00,
2013-06-27 22:38:00,67.8,65.4,29.86,NNE,24,0.0,0.0,92,0.00,CLR,,0.00,WeatherDisplay:10.37,2013-06-28 02:38:00,
2013-06-27 22:43:00,67.8,65.4,29.86,NNE,24,0.0,0.0,92,0.00,CLR,,0.00,WeatherDisplay:10.37,2013-06-28 02:43:00,
2013-06-27 22:48:00,67.8,65.4,29.86,NNE,24,0.0,0.0,92,0.00,CLR,,0.00,WeatherDisplay:10.37,2013-06-28 02:48:00,
2013-06-27 22:54:00,67.8,65.4,29.87,NNE,24,0.0,0.0,92,0.00,CLR,,0.00,WeatherDisplay:10.37,2013-06-28 02:54:00,
2013-06-27 22:59:00,67.8,65.4,29.85,NNE,24,0.0,0.0,92,0.00,CLR,,0.00,WeatherDisplay:10.37,2013-06-28 02:59:00,
2013-06-27 23:04:00,67.8,65.4,29.86,NNE,24,0.0,0.0,92,0.00,CLR,,0.00,WeatherDisplay:10.37,2013-06-28 03:04:00,
2013-06-27 23:09:00,67.8,65.4,29.85,NNE,24,0.0,0.0,92,0.00,CLR,,0.00,WeatherDisplay:10.37,2013-06-28 03:09:00,
2013-06-27 23:14:00,67.8,65.4,29.85,NNE,24,0.0,0.0,92,0.00,CLR,,0.00,WeatherDisplay:10.37,2013-06-28 03:14:00,
2013-06-27 23:19:00,67.8,65.4,29.85,NNE,24,0.0,0.0,92,0.00,CLR,,0.00,WeatherDisplay:10.37,2013-06-28 03:19:00,
2013-06-27 23:24:00,67.8,65.4,29.85,NNE,24,0.0,0.0,92,0.00,CLR,,0.00,WeatherDisplay:10.37,2013-06-28 03:24:00,
2013-06-27 23:30:00,67.8,65.4,29.85,NNE,24,0.0,0.0,92,0.00,CLR,,0.00,WeatherDisplay:10.37,2013-06-28 03:30:00,
2013-06-27 23:35:00,67.8,65.4,29.85,NNE,24,0.0,0.0,92,0.00,CLR,,0.00,WeatherDisplay:10.37,2013-06-28 03:35:00,
2013-06-27 23:40:00,67.8,65.4,29.84,NNE,24,0.0,0.0,92,0.00,CLR,,0.00,WeatherDisplay:10.37,2013-06-28 03:40:00,
2013-06-27 23:45:00,67.8,65.4,29.85,NNE,24,0.0,0.0,92,0.00,CLR,,0.00,WeatherDisplay:10.37,2013-06-28 03:45:00,
2013-06-27 23:51:00,67.8,65.7,29.85,NNE,24,0.0,0.0,93,0.00,CLR,,0.00,WeatherDisplay:10.37,2013-06-28 03:51:00,
2013-06-27 23:56:00,67.8,65.7,29.85,NNE,24,0.0,0.0,93,0.00,CLR,,0.00,WeatherDisplay:10.37,2013-06-28 03:56:00,